sensor_id;sensor_type;location;lat;lon;timestamp;P1;durP1;ratioP1;P2;durP2;ratioP2
22675;SDS011;12521;43.310;21.876;2024-03-25T02:35:59;5.0;;;4.0;;
22675;SDS011;12521;43.310;21.876;2024-03-25T02:40:37;5.0;;;4.0;;
22675;SDS011;12521;43.310;21.876;2024-03-25T02:45:15;5.0;;;4.0;;
22675;SDS011;12521;43.310;21.876;2024-03-25T02:49:52;5.0;;;4.0;;
22675;SDS011;12521;43.310;21.876;2024-03-25T02:54:28;5.0;;;4.0;;
22675;SDS011;12521;43.310;21.876;2024-03-25T02:59:05;5.0;;;4.0;;
22675;SDS011;12521;43.310;21.876;2024-03-25T03:03:42;5.0;;;4.0;;
22675;SDS011;12521;43.310;21.876;2024-03-25T03:36:00;3.0;;;3.0;;
22675;SDS011;12521;43.310;21.876;2024-03-25T03:40:37;3.0;;;3.0;;
22675;SDS011;12521;43.310;21.876;2024-03-25T03:45:14;3.0;;;3.0;;
22675;SDS011;12521;43.310;21.876;2024-03-25T03:49:51;3.0;;;3.0;;
22675;SDS011;12521;43.310;21.876;2024-03-25T03:54:28;3.0;;;3.0;;
22675;SDS011;12521;43.310;21.876;2024-03-25T03:59:05;3.0;;;3.0;;
22675;SDS011;12521;43.310;21.876;2024-03-25T04:03:42;3.0;;;3.0;;
22675;SDS011;12521;43.310;21.876;2024-03-25T07:17:25;5.0;;;5.0;;
22675;SDS011;12521;43.310;21.876;2024-03-25T07:22:03;5.0;;;5.0;;
22675;SDS011;12521;43.310;21.876;2024-03-25T07:26:40;5.0;;;5.0;;
22675;SDS011;12521;43.310;21.876;2024-03-25T07:31:17;5.0;;;5.0;;
22675;SDS011;12521;43.310;21.876;2024-03-25T07:35:54;5.0;;;5.0;;
22675;SDS011;12521;43.310;21.876;2024-03-25T07:40:31;5.0;;;5.0;;
22675;SDS011;12521;43.310;21.876;2024-03-25T07:45:09;5.0;;;5.0;;
22675;SDS011;12521;43.310;21.876;2024-03-25T10:59:37;11.0;;;9.0;;
22675;SDS011;12521;43.310;21.876;2024-03-25T11:04:16;11.0;;;9.0;;
22675;SDS011;12521;43.310;21.876;2024-03-25T11:08:58;11.0;;;9.0;;
22675;SDS011;12521;43.310;21.876;2024-03-25T11:13:37;11.0;;;9.0;;
22675;SDS011;12521;43.310;21.876;2024-03-25T11:18:18;9.0;;;8.0;;
22675;SDS011;12521;43.310;21.876;2024-03-25T11:23:11;9.0;;;8.0;;
22675;SDS011;12521;43.310;21.876;2024-03-25T11:27:50;7.0;;;6.0;;
22675;SDS011;12521;43.310;21.876;2024-03-25T11:32:30;7.0;;;6.0;;
22675;SDS011;12521;43.310;21.876;2024-03-25T11:37:19;7.0;;;6.0;;
22675;SDS011;12521;43.310;21.876;2024-03-25T11:41:56;7.0;;;6.0;;
22675;SDS011;12521;43.310;21.876;2024-03-25T12:18:58;7.0;;;5.0;;
22675;SDS011;12521;43.310;21.876;2024-03-25T12:23:36;7.0;;;5.0;;
22675;SDS011;12521;43.310;21.876;2024-03-25T12:28:13;7.0;;;5.0;;
22675;SDS011;12521;43.310;21.876;2024-03-25T12:32:51;7.0;;;5.0;;
22675;SDS011;12521;43.310;21.876;2024-03-25T12:37:28;8.0;;;6.0;;
22675;SDS011;12521;43.310;21.876;2024-03-25T12:42:09;8.0;;;6.0;;
22675;SDS011;12521;43.310;21.876;2024-03-25T12:46:46;9.0;;;7.0;;
22675;SDS011;12521;43.310;21.876;2024-03-25T12:51:23;9.0;;;7.0;;
22675;SDS011;12521;43.310;21.876;2024-03-25T12:55:59;9.0;;;7.0;;
22675;SDS011;12521;43.310;21.876;2024-03-25T13:00:38;9.0;;;7.0;;
22675;SDS011;12521;43.310;21.876;2024-03-25T13:05:16;9.0;;;7.0;;
22675;SDS011;12521;43.310;21.876;2024-03-25T13:19:07;6.0;;;4.0;;
22675;SDS011;12521;43.310;21.876;2024-03-25T13:23:43;6.0;;;4.0;;
22675;SDS011;12521;43.310;21.876;2024-03-25T13:28:20;6.0;;;4.0;;
22675;SDS011;12521;43.310;21.876;2024-03-25T13:32:57;6.0;;;4.0;;
22675;SDS011;12521;43.310;21.876;2024-03-25T13:37:33;6.0;;;4.0;;
22675;SDS011;12521;43.310;21.876;2024-03-25T13:42:10;6.0;;;4.0;;
22675;SDS011;12521;43.310;21.876;2024-03-25T15:00:34;34.0;;;23.0;;
22675;SDS011;12521;43.310;21.876;2024-03-25T15:05:11;34.0;;;23.0;;
22675;SDS011;12521;43.310;21.876;2024-03-25T15:09:47;34.0;;;23.0;;
22675;SDS011;12521;43.310;21.876;2024-03-25T15:14:28;34.0;;;23.0;;
22675;SDS011;12521;43.310;21.876;2024-03-25T15:19:05;34.0;;;23.0;;
22675;SDS011;12521;43.310;21.876;2024-03-25T15:23:42;34.0;;;23.0;;
22675;SDS011;12521;43.310;21.876;2024-03-25T16:19:10;35.0;;;28.0;;
22675;SDS011;12521;43.310;21.876;2024-03-25T16:23:47;35.0;;;28.0;;
22675;SDS011;12521;43.310;21.876;2024-03-25T16:28:23;35.0;;;28.0;;
22675;SDS011;12521;43.310;21.876;2024-03-25T16:32:59;35.0;;;28.0;;
22675;SDS011;12521;43.310;21.876;2024-03-25T16:37:36;58.0;;;46.0;;
22675;SDS011;12521;43.310;21.876;2024-03-25T16:42:14;58.0;;;46.0;;
22675;SDS011;12521;43.310;21.876;2024-03-25T16:46:52;81.0;;;64.0;;
22675;SDS011;12521;43.310;21.876;2024-03-25T16:51:29;81.0;;;64.0;;
22675;SDS011;12521;43.310;21.876;2024-03-25T16:56:06;81.0;;;64.0;;
22675;SDS011;12521;43.310;21.876;2024-03-25T17:00:43;81.0;;;64.0;;
22675;SDS011;12521;43.310;21.876;2024-03-25T17:05:20;81.0;;;64.0;;
22675;SDS011;12521;43.310;21.876;2024-03-25T17:19:10;201.0;;;130.0;;
22675;SDS011;12521;43.310;21.876;2024-03-25T17:23:47;201.0;;;130.0;;
22675;SDS011;12521;43.310;21.876;2024-03-25T17:28:23;201.0;;;130.0;;
22675;SDS011;12521;43.310;21.876;2024-03-25T17:33:00;201.0;;;130.0;;
22675;SDS011;12521;43.310;21.876;2024-03-25T17:37:36;201.0;;;130.0;;
22675;SDS011;12521;43.310;21.876;2024-03-25T17:42:13;201.0;;;130.0;;
22675;SDS011;12521;43.310;21.876;2024-03-25T18:00:40;29.0;;;24.0;;
22675;SDS011;12521;43.310;21.876;2024-03-25T18:05:17;29.0;;;24.0;;
22675;SDS011;12521;43.310;21.876;2024-03-25T18:09:54;29.0;;;24.0;;
22675;SDS011;12521;43.310;21.876;2024-03-25T18:14:35;29.0;;;24.0;;
22675;SDS011;12521;43.310;21.876;2024-03-25T18:19:12;29.0;;;24.0;;
22675;SDS011;12521;43.310;21.876;2024-03-25T18:23:49;29.0;;;24.0;;
22675;SDS011;12521;43.310;21.876;2024-03-25T21:00:39;54.0;;;49.0;;
22675;SDS011;12521;43.310;21.876;2024-03-25T21:05:17;54.0;;;49.0;;
22675;SDS011;12521;43.310;21.876;2024-03-25T21:09:53;54.0;;;49.0;;
22675;SDS011;12521;43.310;21.876;2024-03-25T21:14:30;54.0;;;49.0;;
22675;SDS011;12521;43.310;21.876;2024-03-25T21:19:07;54.0;;;49.0;;
22675;SDS011;12521;43.310;21.876;2024-03-25T21:23:46;54.0;;;49.0;;
22675;SDS011;12521;43.310;21.876;2024-03-25T22:19:05;29.0;;;26.0;;
22675;SDS011;12521;43.310;21.876;2024-03-25T22:23:42;29.0;;;26.0;;
22675;SDS011;12521;43.310;21.876;2024-03-25T22:28:19;29.0;;;26.0;;
22675;SDS011;12521;43.310;21.876;2024-03-25T22:32:56;29.0;;;26.0;;
22675;SDS011;12521;43.310;21.876;2024-03-25T22:37:33;41.0;;;32.0;;
22675;SDS011;12521;43.310;21.876;2024-03-25T22:42:11;41.0;;;32.0;;
22675;SDS011;12521;43.310;21.876;2024-03-25T22:46:48;41.0;;;32.0;;
22675;SDS011;12521;43.310;21.876;2024-03-25T22:51:25;53.0;;;39.0;;
22675;SDS011;12521;43.310;21.876;2024-03-25T22:56:06;53.0;;;39.0;;
22675;SDS011;12521;43.310;21.876;2024-03-25T23:00:44;53.0;;;39.0;;
22675;SDS011;12521;43.310;21.876;2024-03-25T23:05:20;53.0;;;39.0;;
22675;SDS011;12521;43.310;21.876;2024-03-25T23:19:10;31.0;;;28.0;;
22675;SDS011;12521;43.310;21.876;2024-03-25T23:23:47;31.0;;;28.0;;
22675;SDS011;12521;43.310;21.876;2024-03-25T23:28:24;31.0;;;28.0;;
22675;SDS011;12521;43.310;21.876;2024-03-25T23:33:03;31.0;;;28.0;;
22675;SDS011;12521;43.310;21.876;2024-03-25T23:37:41;31.0;;;28.0;;
22675;SDS011;12521;43.310;21.876;2024-03-25T23:42:18;31.0;;;28.0;;
